Time;durP1;ratioP1;P1;durP2;ratioP2;P2;SDS_P1;SDS_P2;PMS_P1;PMS_P2;Temp;Humidity;BMP_temperature;BMP_pressure;BME280_temperature;BME280_humidity;BME280_pressure;Samples;Min_cycle;Max_cycle;Signal;HPM_P1;HPM_P2
2021/06/27 00:00:40;;;;;;;7.13;5.90;;;;;;;22.93;30.84;101279.16;3587979;40;20033;-66
2021/06/27 00:03:10;;;;;;;7.57;6.07;;;;;;;22.89;31.20;101283.38;3589261;40;20060;-66
2021/06/27 00:05:39;;;;;;;7.88;6.25;;;;;;;22.87;31.46;101273.53;3589583;40;20328;-66
2021/06/27 00:08:11;;;;;;;6.20;5.60;;;;;;;22.86;31.38;101281.03;3589519;40;20048;-66
2021/06/27 00:10:41;;;;;;;7.28;5.97;;;;;;;22.85;31.51;101278.44;3588927;40;20053;-66
2021/06/27 00:13:10;;;;;;;7.40;5.95;;;;;;;22.83;31.07;101280.53;3589528;40;20056;-66
2021/06/27 00:15:40;;;;;;;8.73;6.78;;;;;;;22.82;31.70;101274.09;3590692;40;20187;-66
2021/06/27 00:18:12;;;;;;;7.20;6.25;;;;;;;22.80;31.76;101273.44;3587779;40;20106;-66
2021/06/27 00:20:43;;;;;;;8.05;6.50;;;;;;;22.75;31.66;101267.59;3588140;40;21359;-66
2021/06/27 00:23:12;;;;;;;7.38;6.40;;;;;;;22.74;31.24;101273.38;3584364;40;20061;-66
2021/06/27 00:25:40;;;;;;;7.03;6.22;;;;;;;22.72;31.96;101272.72;3584461;40;20106;-66
2021/06/27 00:28:09;;;;;;;7.40;6.53;;;;;;;22.70;31.68;101272.06;3586723;40;20053;-66
2021/06/27 00:30:38;;;;;;;8.25;6.32;;;;;;;22.69;31.44;101268.41;3586168;40;20096;-66
2021/06/27 00:33:09;;;;;;;7.15;6.05;;;;;;;22.66;31.35;101266.03;3593285;40;20049;-67
2021/06/27 00:35:37;;;;;;;7.18;6.18;;;;;;;22.66;31.41;101259.56;3585666;40;20065;-66
2021/06/27 00:38:06;;;;;;;7.57;6.15;;;;;;;22.65;31.76;101263.44;3580934;40;20048;-66
2021/06/27 00:40:35;;;;;;;8.32;6.40;;;;;;;22.64;31.87;101262.59;3584643;40;20052;-66
2021/06/27 00:43:05;;;;;;;7.70;6.20;;;;;;;22.63;31.75;101254.44;3588137;40;20052;-66
2021/06/27 00:45:35;;;;;;;6.72;5.63;;;;;;;22.62;31.49;101256.34;3584682;40;20059;-66
2021/06/27 00:48:05;;;;;;;7.75;6.47;;;;;;;22.60;31.55;101258.47;3588877;40;20057;-66
2021/06/27 00:50:39;;;;;;;7.80;6.05;;;;;;;22.61;32.01;101262.13;3588818;40;20052;-66
2021/06/27 00:53:08;;;;;;;7.90;6.05;;;;;;;22.55;32.00;101255.44;3587500;40;20056;-66
2021/06/27 00:55:37;;;;;;;7.45;5.68;;;;;;;22.55;31.57;101258.22;3588923;40;20300;-66
2021/06/27 00:58:06;;;;;;;7.85;6.13;;;;;;;22.51;31.83;101266.13;3586590;40;20343;-66
2021/06/27 01:00:36;;;;;;;7.18;6.13;;;;;;;22.49;31.85;101251.50;3582391;40;20052;-66
2021/06/27 01:03:05;;;;;;;7.28;5.80;;;;;;;22.48;31.65;101246.13;3578723;40;20092;-66
2021/06/27 01:06:00;;;;;;;7.80;6.40;;;;;;;22.42;31.92;101250.59;3614793;22;20290;-78
2021/06/27 01:08:29;;;;;;;7.38;5.55;;;;;;;22.41;31.96;101242.44;3592861;40;20036;-77
2021/06/27 01:10:57;;;;;;;7.57;6.22;;;;;;;22.39;31.90;101248.22;3595205;40;20032;-78
2021/06/27 01:13:25;;;;;;;7.93;6.10;;;;;;;22.35;32.08;101255.25;3605730;39;20086;-77
2021/06/27 01:15:54;;;;;;;8.73;6.45;;;;;;;22.31;31.85;101256.72;3606859;39;20091;-77
2021/06/27 01:18:23;;;;;;;7.30;5.95;;;;;;;22.29;32.04;101253.28;3594977;40;20041;-78
2021/06/27 01:20:51;;;;;;;7.65;6.32;;;;;;;22.26;32.18;101259.22;3595382;40;20091;-78
2021/06/27 01:23:21;;;;;;;7.78;6.80;;;;;;;22.25;32.06;101263.06;3587133;40;20040;-78
2021/06/27 01:25:53;;;;;;;7.38;5.93;;;;;;;22.22;32.18;101255.13;3578867;40;20041;-79
2021/06/27 01:28:21;;;;;;;7.13;5.70;;;;;;;22.16;32.31;101253.09;3586833;40;20029;-79
2021/06/27 01:30:50;;;;;;;7.22;6.00;;;;;;;22.15;32.25;101260.59;3587036;40;20065;-78
2021/06/27 01:33:20;;;;;;;7.75;6.15;;;;;;;22.14;32.31;101258.03;3587633;40;20025;-80
2021/06/27 01:35:50;;;;;;;8.50;5.93;;;;;;;22.12;32.59;101260.13;3587022;40;20434;-78
2021/06/27 01:38:19;;;;;;;8.35;6.28;;;;;;;22.10;32.75;101256.69;3586974;40;20041;-79
2021/06/27 01:40:49;;;;;;;7.03;5.85;;;;;;;22.09;32.70;101250.25;3587127;40;20045;-79
2021/06/27 01:43:19;;;;;;;7.47;5.60;;;;;;;22.08;32.57;101256.00;3587304;40;20461;-80
2021/06/27 01:45:50;;;;;;;6.80;5.90;;;;;;;22.06;32.81;101260.94;3587029;40;20125;-79
2021/06/27 01:48:19;;;;;;;7.30;6.00;;;;;;;22.03;32.96;101259.41;3587551;40;20041;-79
2021/06/27 01:50:50;;;;;;;12.38;6.78;;;;;;;22.04;32.59;101254.69;3598920;40;20328;-79
2021/06/27 01:53:21;;;;;;;6.80;5.55;;;;;;;22.01;32.33;101266.22;3580011;40;20029;-80
2021/06/27 01:56:04;;;;;;;7.00;6.03;;;;;;;22.01;32.65;101267.09;3582279;40;20094;-79
2021/06/27 01:58:38;;;;;;;7.25;5.95;;;;;;;22.00;32.53;101259.78;3582273;40;20021;-80
2021/06/27 02:01:08;;;;;;;7.25;6.10;;;;;;;21.98;32.78;101270.28;3582356;40;20430;-81
2021/06/27 02:03:38;;;;;;;7.60;6.15;;;;;;;21.95;32.39;101253.97;3574074;40;20037;-80
2021/06/27 02:06:06;;;;;;;7.30;6.13;;;;;;;21.92;32.54;101253.47;3570000;40;20092;-81
2021/06/27 02:08:35;;;;;;;7.53;6.20;;;;;;;21.91;32.47;101257.31;3582109;40;20050;-82
2021/06/27 02:11:09;;;;;;;7.38;5.90;;;;;;;21.92;32.94;101259.91;3582252;40;20034;-80
2021/06/27 02:13:38;;;;;;;7.82;6.45;;;;;;;21.86;32.76;101259.84;3560358;40;20023;-79
2021/06/27 02:16:10;;;;;;;7.50;5.88;;;;;;;21.85;32.55;101256.19;3552166;40;20032;-80
2021/06/27 02:18:41;;;;;;;8.07;6.20;;;;;;;21.82;32.53;101257.44;3527472;40;20388;-79
2021/06/27 02:21:20;;;;;;;7.05;6.07;;;;;;;21.81;32.85;101258.53;3550582;40;20087;-78
2021/06/27 02:23:50;;;;;;;8.38;6.65;;;;;;;21.78;32.84;101264.47;3517143;40;20039;-78
2021/06/27 02:26:19;;;;;;;7.75;6.30;;;;;;;21.78;32.73;101267.28;3532772;40;20034;-79
2021/06/27 02:28:48;;;;;;;7.85;6.35;;;;;;;21.75;33.12;101270.44;3524656;40;20032;-79
2021/06/27 02:31:17;;;;;;;8.38;6.22;;;;;;;21.73;32.75;101264.22;3532869;40;20046;-79
2021/06/27 02:33:46;;;;;;;7.43;6.18;;;;;;;21.71;33.33;101259.91;3532780;40;20090;-79
2021/06/27 02:36:14;;;;;;;7.78;6.40;;;;;;;21.68;33.03;101254.72;3523102;40;20032;-80
2021/06/27 02:38:42;;;;;;;8.07;6.65;;;;;;;21.66;33.02;101257.69;3503554;41;20037;-79
2021/06/27 02:41:11;;;;;;;7.40;6.07;;;;;;;21.65;33.08;101252.34;3506812;40;20047;-80
2021/06/27 02:43:41;;;;;;;9.20;6.50;;;;;;;21.64;33.02;101254.25;3531745;40;20098;-81
2021/06/27 02:46:09;;;;;;;7.82;6.05;;;;;;;21.61;33.13;101259.34;3542068;40;20039;-77
2021/06/27 02:48:38;;;;;;;7.97;6.30;;;;;;;21.57;32.84;101256.09;3532240;40;20060;-78
2021/06/27 02:51:06;;;;;;;7.65;6.03;;;;;;;21.55;33.07;101248.97;3532741;40;20031;-79
2021/06/27 02:53:34;;;;;;;7.80;6.13;;;;;;;21.53;33.20;101242.72;3524302;40;20043;-78
2021/06/27 02:56:08;;;;;;;7.40;6.03;;;;;;;21.51;33.26;101236.47;3532459;40;20052;-78
2021/06/27 02:58:39;;;;;;;7.07;6.07;;;;;;;21.49;33.29;101233.88;3522376;40;20024;-76
2021/06/27 03:01:09;;;;;;;7.82;6.40;;;;;;;21.48;33.73;101232.19;3532374;40;20048;-79
2021/06/27 03:03:40;;;;;;;9.23;6.35;;;;;;;21.45;33.38;101227.00;3532012;40;20084;-80
2021/06/27 03:06:16;;;;;;;8.43;6.82;;;;;;;21.38;33.57;101226.06;3520765;40;20048;-78
2021/06/27 03:08:46;;;;;;;7.70;6.10;;;;;;;21.36;33.81;101225.38;3513568;40;20032;-80
2021/06/27 03:11:15;;;;;;;7.63;6.30;;;;;;;21.34;33.43;101221.91;3522681;40;20032;-82
2021/06/27 03:13:43;;;;;;;7.28;6.07;;;;;;;21.31;33.58;101217.63;3522685;40;20048;-79
2021/06/27 03:16:13;;;;;;;7.32;5.63;;;;;;;21.30;33.96;101220.59;3530889;40;20060;-79
2021/06/27 03:18:41;;;;;;;9.75;6.38;;;;;;;21.26;33.92;101210.91;3523350;40;20036;-79
2021/06/27 03:21:09;;;;;;;7.57;6.05;;;;;;;21.25;33.93;101215.59;3540374;40;20047;-79
2021/06/27 03:23:37;;;;;;;9.20;6.43;;;;;;;21.22;34.18;101212.34;3525305;40;20044;-81
2021/06/27 03:26:06;;;;;;;7.70;6.35;;;;;;;21.20;33.88;101209.75;3551901;40;20035;-79
2021/06/27 03:28:35;;;;;;;6.57;5.78;;;;;;;21.19;33.71;101216.38;3551968;40;20405;-77
2021/06/27 03:31:04;;;;;;;7.22;5.80;;;;;;;21.20;34.04;101212.53;3561174;40;20026;-77
2021/06/27 03:33:34;;;;;;;7.53;5.82;;;;;;;21.19;33.65;101210.81;3571753;40;20030;-77
2021/06/27 03:36:02;;;;;;;7.57;6.00;;;;;;;21.16;33.90;101211.19;3581523;40;20091;-78
2021/06/27 03:38:37;;;;;;;7.70;6.03;;;;;;;21.14;34.03;101213.31;3581459;40;20034;-79
2021/06/27 03:41:05;;;;;;;7.18;6.25;;;;;;;21.13;34.28;101216.28;3581707;40;20025;-79
2021/06/27 03:43:35;;;;;;;7.78;6.15;;;;;;;21.11;33.94;101216.47;3584969;40;20029;-80
2021/06/27 03:46:03;;;;;;;7.60;6.25;;;;;;;21.12;33.85;101222.91;3552597;40;20445;-79
2021/06/27 03:48:33;;;;;;;9.50;6.60;;;;;;;21.11;33.98;101224.81;3560941;40;20046;-78
2021/06/27 03:51:01;;;;;;;9.73;6.25;;;;;;;21.11;34.11;101226.75;3551429;40;20551;-81
2021/06/27 03:53:30;;;;;;;7.75;6.10;;;;;;;21.11;34.32;101237.88;3570611;40;20067;-80
2021/06/27 03:55:59;;;;;;;7.53;5.82;;;;;;;21.08;34.39;101236.31;3563132;40;20084;-79
2021/06/27 03:58:28;;;;;;;7.70;6.25;;;;;;;21.10;34.16;101250.06;3561754;40;20615;-80
2021/06/27 04:00:57;;;;;;;8.63;6.25;;;;;;;21.08;34.10;101250.25;3563012;40;20038;-79
2021/06/27 04:03:26;;;;;;;7.97;6.13;;;;;;;21.06;34.39;101238.47;3571293;40;20026;-79
2021/06/27 04:05:55;;;;;;;8.00;6.45;;;;;;;21.08;34.28;101236.31;3562780;40;20122;-79
2021/06/27 04:08:23;;;;;;;8.10;6.57;;;;;;;21.08;34.62;101222.41;3571244;40;20041;-79
2021/06/27 04:10:56;;;;;;;7.57;6.40;;;;;;;21.07;34.62;101209.59;3562687;40;20038;-80
2021/06/27 04:13:25;;;;;;;8.25;6.80;;;;;;;21.08;34.96;101216.03;3571139;40;20573;-79
2021/06/27 04:15:55;;;;;;;9.10;6.45;;;;;;;21.06;34.83;101224.56;3571091;40;20045;-79
2021/06/27 04:18:25;;;;;;;7.80;6.28;;;;;;;21.07;34.93;101229.06;3591130;40;20090;-80
2021/06/27 04:20:56;;;;;;;7.80;6.55;;;;;;;21.05;35.01;101226.47;3551196;40;20070;-80
2021/06/27 04:23:25;;;;;;;7.10;6.07;;;;;;;21.04;34.87;101233.09;3570381;40;20027;-79
2021/06/27 04:25:53;;;;;;;7.22;5.47;;;;;;;21.04;35.12;101226.66;3550720;40;20038;-78
2021/06/27 04:28:22;;;;;;;7.82;6.22;;;;;;;21.04;34.76;101223.88;3531431;40;20028;-80
2021/06/27 04:30:51;;;;;;;7.28;5.80;;;;;;;21.05;34.76;101225.59;3531545;40;20032;-77
2021/06/27 04:33:19;;;;;;;6.30;5.50;;;;;;;21.04;34.91;101219.19;3523846;40;20531;-77
2021/06/27 04:35:47;;;;;;;7.45;5.88;;;;;;;21.06;34.84;101217.06;3541695;40;20042;-77
2021/06/27 04:38:18;;;;;;;7.50;5.78;;;;;;;21.10;35.21;101211.97;3533199;40;20041;-79
2021/06/27 04:40:47;;;;;;;8.77;6.50;;;;;;;21.09;35.72;101196.34;3541332;40;20060;-79
2021/06/27 04:43:15;;;;;;;8.45;6.22;;;;;;;21.10;35.61;101211.97;3543174;40;20097;-78
2021/06/27 04:45:46;;;;;;;8.15;6.68;;;;;;;21.12;35.50;101211.78;3545546;40;20663;-80
2021/06/27 04:48:14;;;;;;;8.18;5.97;;;;;;;21.09;35.33;101199.13;3563763;40;21159;-78
2021/06/27 04:50:42;;;;;;;8.23;6.55;;;;;;;21.06;35.47;101191.19;3544393;40;20034;-79
2021/06/27 04:53:13;;;;;;;6.97;5.88;;;;;;;21.08;35.66;101199.34;3552720;40;20606;-77
2021/06/27 04:55:43;;;;;;;9.13;5.93;;;;;;;21.06;35.85;101193.97;3552740;40;20059;-77
2021/06/27 04:58:13;;;;;;;9.10;6.40;;;;;;;21.03;35.91;101191.56;3572557;40;20022;-78
2021/06/27 05:00:44;;;;;;;8.20;5.78;;;;;;;21.00;36.04;101189.16;3570608;40;20037;-77
2021/06/27 05:03:12;;;;;;;7.13;5.45;;;;;;;20.99;35.69;101185.53;3570416;40;20098;-77
2021/06/27 05:05:40;;;;;;;7.57;5.30;;;;;;;20.97;35.68;101182.06;3560592;40;20557;-78
2021/06/27 05:08:08;;;;;;;6.60;5.32;;;;;;;20.99;35.66;101187.44;3552599;40;20035;-78
2021/06/27 05:10:36;;;;;;;6.35;5.35;;;;;;;20.99;35.67;101182.75;3572166;40;20076;-82
2021/06/27 05:13:07;;;;;;;7.72;5.25;;;;;;;21.01;36.22;101177.84;3572198;40;20054;-79
2021/06/27 05:15:36;;;;;;;5.70;4.82;;;;;;;21.00;35.60;101175.22;3541090;40;20063;-78
2021/06/27 05:18:05;;;;;;;7.40;5.03;;;;;;;21.00;35.85;101178.03;3539125;40;20024;-79
2021/06/27 05:20:33;;;;;;;6.45;5.00;;;;;;;21.02;36.06;101165.66;3532610;40;20035;-80
2021/06/27 05:23:02;;;;;;;7.00;5.15;;;;;;;21.06;35.72;101171.69;3544012;40;20062;-80
2021/06/27 05:25:31;;;;;;;6.15;4.93;;;;;;;21.08;36.10;101168.75;3551944;40;20034;-77
2021/06/27 05:28:00;;;;;;;6.00;4.88;;;;;;;21.11;36.11;101171.09;3544050;40;20034;-78
2021/06/27 05:30:30;;;;;;;5.95;4.97;;;;;;;21.17;35.84;101178.66;3552118;40;20035;-78
2021/06/27 05:32:59;;;;;;;5.78;4.95;;;;;;;21.17;35.73;101176.75;3532634;40;20031;-78
2021/06/27 05:35:29;;;;;;;6.13;4.78;;;;;;;21.22;35.98;101167.84;3541327;40;20028;-77
2021/06/27 05:37:57;;;;;;;6.93;4.75;;;;;;;21.25;35.70;101164.66;3551845;40;20055;-81
2021/06/27 05:40:25;;;;;;;6.22;4.70;;;;;;;21.28;36.38;101167.91;3532779;40;20020;-78
2021/06/27 05:42:56;;;;;;;7.28;5.30;;;;;;;21.31;35.77;101173.09;3522904;40;20084;-78
2021/06/27 05:45:24;;;;;;;6.60;5.20;;;;;;;21.36;36.22;101172.50;3523081;40;20040;-78
2021/06/27 05:47:54;;;;;;;7.30;5.25;;;;;;;21.43;36.23;101176.22;3542220;40;20031;-78
2021/06/27 05:50:22;;;;;;;6.05;4.90;;;;;;;21.44;36.21;101173.25;3542193;40;20031;-80
2021/06/27 05:52:50;;;;;;;6.60;5.15;;;;;;;21.51;36.25;101166.88;3541959;40;20027;-77
2021/06/27 05:55:18;;;;;;;6.18;4.80;;;;;;;21.56;36.00;101167.22;3560972;40;20042;-77
2021/06/27 05:57:46;;;;;;;7.18;4.75;;;;;;;21.60;36.10;101169.38;3532149;40;20043;-78
2021/06/27 06:00:15;;;;;;;5.82;4.85;;;;;;;21.68;36.60;101162.81;3522778;40;20068;-78
2021/06/27 06:02:43;;;;;;;6.35;5.20;;;;;;;21.73;35.98;101155.63;3571235;40;20041;-77
2021/06/27 06:05:13;;;;;;;4.97;4.15;;;;;;;21.82;36.23;101156.31;3577687;40;20062;-78
2021/06/27 06:07:41;;;;;;;6.50;5.03;;;;;;;21.86;36.53;101166.03;3577864;40;20116;-78
2021/06/27 06:10:11;;;;;;;6.65;5.05;;;;;;;21.95;36.31;101173.19;3582085;40;20093;-77
2021/06/27 06:12:39;;;;;;;7.35;5.20;;;;;;;22.00;36.05;101167.88;3601026;39;20025;-78
2021/06/27 06:15:08;;;;;;;6.88;4.68;;;;;;;22.08;35.97;101172.44;3601780;39;20048;-78
2021/06/27 06:17:37;;;;;;;6.57;5.07;;;;;;;22.13;36.24;101168.00;3593345;40;20408;-78
2021/06/27 06:20:06;;;;;;;6.32;5.13;;;;;;;22.23;36.54;101164.91;3581736;40;20025;-79
2021/06/27 06:22:36;;;;;;;5.95;4.60;;;;;;;22.31;36.51;101164.75;3572753;40;20033;-80
2021/06/27 06:25:04;;;;;;;5.60;4.45;;;;;;;22.36;36.59;101169.72;3573336;40;20073;-79
2021/06/27 06:27:33;;;;;;;8.23;5.18;;;;;;;22.43;36.19;101163.13;3571434;40;20049;-79
2021/06/27 06:30:01;;;;;;;5.50;4.60;;;;;;;22.50;36.14;101165.94;3550313;40;20067;-79
2021/06/27 06:32:39;;;;;;;5.25;4.05;;;;;;;22.63;36.04;101166.06;3551578;40;20046;-78
2021/06/27 06:35:08;;;;;;;5.20;4.30;;;;;;;22.70;36.09;101174.47;3559571;40;20053;-80
2021/06/27 06:37:52;;;;;;;5.55;4.63;;;;;;;22.79;35.88;101168.53;3552475;40;20034;-81
2021/06/27 06:40:37;;;;;;;5.53;4.55;;;;;;;22.87;35.30;101170.31;3561508;40;20037;-80
2021/06/27 06:43:17;;;;;;;6.22;4.47;;;;;;;22.94;35.48;101174.00;3562025;40;20062;-80
2021/06/27 06:45:46;;;;;;;6.75;4.43;;;;;;;23.04;35.48;101168.91;3550987;40;20441;-79
2021/06/27 06:48:14;;;;;;;5.70;4.43;;;;;;;23.12;35.61;101168.72;3542074;40;20075;-78
2021/06/27 06:50:42;;;;;;;6.53;4.40;;;;;;;23.19;35.69;101179.91;3548291;40;20488;-79
2021/06/27 06:53:12;;;;;;;5.93;4.47;;;;;;;23.27;35.11;101188.97;3553951;40;20089;-77
2021/06/27 06:55:41;;;;;;;5.80;5.00;;;;;;;23.31;35.21;101181.03;3561242;40;20034;-80
2021/06/27 06:58:09;;;;;;;5.95;4.32;;;;;;;23.38;35.02;101186.66;3559954;40;20051;-82
2021/06/27 07:05:08;;;;;;;4.45;3.75;;;;;;;23.49;35.09;101183.28;3578366;40;20064;-80
2021/06/27 07:07:41;;;;;;;5.90;4.35;;;;;;;23.56;35.11;101190.59;3560160;40;20027;-80
2021/06/27 07:10:12;;;;;;;5.45;3.90;;;;;;;23.62;34.76;101195.38;3534034;40;20035;-81
2021/06/27 07:12:45;;;;;;;4.78;3.97;;;;;;;23.64;34.72;101187.63;3540451;40;20180;-80
2021/06/27 07:15:15;;;;;;;5.97;4.40;;;;;;;23.69;34.68;101189.78;3547051;40;20586;-80
2021/06/27 07:17:44;;;;;;;4.80;4.20;;;;;;;23.74;34.58;101194.72;3542267;40;20074;-80
2021/06/27 07:20:14;;;;;;;5.65;4.38;;;;;;;23.77;34.54;101185.94;3542341;40;20031;-81
2021/06/27 07:22:42;;;;;;;5.00;4.07;;;;;;;23.80;34.52;101186.34;3551589;40;20479;-80
2021/06/27 07:25:13;;;;;;;5.35;4.10;;;;;;;23.86;34.01;101173.50;3560377;40;20042;-79
2021/06/27 07:27:41;;;;;;;6.85;4.60;;;;;;;23.87;34.30;101181.66;3561451;40;20050;-79
2021/06/27 07:30:13;;;;;;;5.07;4.28;;;;;;;23.92;34.26;101181.03;3542133;40;20143;-80
2021/06/27 07:32:41;;;;;;;6.47;4.30;;;;;;;23.95;34.44;101183.41;3534086;40;20038;-79
2021/06/27 07:35:10;;;;;;;5.88;4.57;;;;;;;24.00;34.04;101186.41;3542186;40;20027;-80
2021/06/27 07:37:44;;;;;;;5.13;4.30;;;;;;;24.03;34.19;101181.25;3561933;40;20023;-81
2021/06/27 07:40:17;;;;;;;5.75;4.00;;;;;;;24.10;34.51;101172.91;3543654;40;20034;-81
2021/06/27 07:42:45;;;;;;;5.07;4.22;;;;;;;24.14;34.40;101181.72;3551984;40;20038;-82
2021/06/27 07:45:15;;;;;;;5.22;4.20;;;;;;;24.20;34.05;101178.06;3533220;40;20048;-84
2021/06/27 07:47:44;;;;;;;5.43;3.92;;;;;;;24.23;34.18;101178.50;3548366;40;20030;-80
2021/06/27 07:50:13;;;;;;;5.00;3.80;;;;;;;24.30;34.29;101175.69;3561739;40;20055;-83
2021/06/27 07:52:42;;;;;;;6.40;4.47;;;;;;;24.36;34.25;101178.50;3570381;40;20093;-80
2021/06/27 07:55:10;;;;;;;4.90;4.10;;;;;;;24.45;34.49;101182.78;3569816;40;20094;-80
2021/06/27 07:57:41;;;;;;;6.13;4.43;;;;;;;24.55;34.64;101184.28;3575893;40;20042;-80
2021/06/27 08:00:10;;;;;;;5.90;4.03;;;;;;;24.62;34.12;101179.56;3573317;40;20051;-79
2021/06/27 08:02:42;;;;;;;5.22;4.03;;;;;;;24.69;33.90;101180.44;3569403;40;20042;-81
2021/06/27 08:05:11;;;;;;;6.15;4.30;;;;;;;24.78;33.98;101179.97;3568442;40;20037;-80
2021/06/27 08:07:39;;;;;;;5.30;4.35;;;;;;;24.86;33.91;101186.44;3576231;40;20033;-80
2021/06/27 08:10:10;;;;;;;5.28;3.95;;;;;;;24.96;33.87;101181.22;3589326;40;20036;-80
2021/06/27 08:12:41;;;;;;;5.65;4.43;;;;;;;25.05;33.83;101179.91;3589034;40;20481;-79
2021/06/27 08:15:17;;;;;;;5.72;4.15;;;;;;;25.12;33.81;101167.59;3568570;40;20078;-79
2021/06/27 08:17:46;;;;;;;7.45;4.75;;;;;;;25.24;33.55;101175.34;3592650;39;20471;-80
2021/06/27 08:20:16;;;;;;;5.55;4.40;;;;;;;25.33;33.29;101162.81;3594346;40;20526;-79
2021/06/27 08:22:46;;;;;;;4.82;4.13;;;;;;;25.41;33.85;101173.75;3580914;40;20374;-79
2021/06/27 08:25:15;;;;;;;4.53;4.00;;;;;;;25.54;33.08;101168.09;3564687;40;20061;-79
2021/06/27 08:27:45;;;;;;;4.97;4.32;;;;;;;25.66;33.19;101160.69;3579424;40;20044;-80
2021/06/27 08:30:16;;;;;;;5.05;4.18;;;;;;;25.75;33.03;101164.94;3595108;40;20036;-81
2021/06/27 08:32:48;;;;;;;4.82;3.95;;;;;;;25.86;33.13;101164.25;3598394;40;20040;-79
2021/06/27 08:35:18;;;;;;;5.25;3.88;;;;;;;25.97;32.97;101161.81;3579392;40;20099;-80
2021/06/27 08:37:47;;;;;;;4.97;4.10;;;;;;;26.07;33.03;101156.56;3577550;40;20462;-81
2021/06/27 08:40:17;;;;;;;5.30;4.28;;;;;;;26.17;32.57;101151.31;3595831;40;20378;-81
2021/06/27 08:42:48;;;;;;;5.05;4.13;;;;;;;26.24;32.43;101147.34;3591945;40;20083;-80
2021/06/27 08:45:17;;;;;;;5.72;4.35;;;;;;;26.30;32.12;101139.97;3588583;40;20059;-78
2021/06/27 08:47:47;;;;;;;5.45;4.00;;;;;;;26.38;31.93;101141.66;3594271;40;20036;-79
2021/06/27 08:50:17;;;;;;;5.97;4.35;;;;;;;26.44;31.74;101144.38;3577949;40;20427;-79
2021/06/27 08:52:46;;;;;;;5.90;4.75;;;;;;;26.52;31.82;101141.28;3593678;40;20400;-80
2021/06/27 08:55:15;;;;;;;5.28;4.18;;;;;;;26.56;31.68;101136.94;3606489;40;20039;-79
2021/06/27 08:57:44;;;;;;;5.75;3.90;;;;;;;26.60;31.82;101135.38;3598428;40;20062;-78
2021/06/27 09:00:15;;;;;;;5.55;4.40;;;;;;;26.69;31.13;101133.97;3607102;40;20089;-79
2021/06/27 09:02:43;;;;;;;5.60;4.53;;;;;;;26.73;31.27;101141.94;3586427;40;20034;-80
2021/06/27 09:05:12;;;;;;;5.65;3.97;;;;;;;26.80;31.44;101142.72;3548155;40;20394;-81
2021/06/27 09:07:41;;;;;;;5.18;3.90;;;;;;;26.84;31.03;101141.19;3549304;40;20050;-80
2021/06/27 09:10:23;;;;;;;5.20;4.20;;;;;;;26.91;31.38;101144.75;3572503;40;20462;-81
2021/06/27 09:12:53;;;;;;;4.50;3.90;;;;;;;26.96;30.86;101145.81;3569464;40;20037;-80
2021/06/27 09:15:42;;;;;;;5.65;4.05;;;;;;;27.04;30.50;101144.63;3582656;40;20482;-79
2021/06/27 09:18:23;;;;;;;5.05;3.70;;;;;;;27.10;30.61;101132.44;3586427;40;20041;-80
2021/06/27 09:20:52;;;;;;;5.00;3.80;;;;;;;27.16;30.53;101139.94;3570755;40;20030;-80
2021/06/27 09:23:34;;;;;;;4.82;3.60;;;;;;;27.23;30.19;101140.72;3559355;40;20046;-79
2021/06/27 09:26:03;;;;;;;4.55;3.53;;;;;;;27.25;29.70;101137.69;3585916;40;20322;-82
2021/06/27 09:28:44;;;;;;;4.80;3.55;;;;;;;27.34;29.57;101131.47;3587958;40;20070;-80
2021/06/27 09:31:32;;;;;;;4.72;3.58;;;;;;;27.38;30.03;101134.69;3606330;40;20044;-78
2021/06/27 09:34:01;;;;;;;4.75;3.83;;;;;;;27.43;29.85;101130.06;3595883;40;20361;-79
2021/06/27 09:36:30;;;;;;;4.53;3.72;;;;;;;27.51;29.74;101130.84;3589460;40;20037;-82
2021/06/27 09:38:58;;;;;;;4.88;3.25;;;;;;;27.58;30.23;101124.06;3578783;40;20037;-80
2021/06/27 09:41:30;;;;;;;4.70;4.00;;;;;;;27.68;29.63;101126.28;3587754;40;20031;-80
2021/06/27 09:43:59;;;;;;;5.38;3.72;;;;;;;27.71;29.21;101118.22;3587607;40;20029;-79
2021/06/27 09:46:35;;;;;;;4.82;3.65;;;;;;;27.84;28.17;101130.34;3585689;40;20018;-78
2021/06/27 09:49:06;;;;;;;4.75;3.65;;;;;;;27.87;28.36;101121.44;3588169;40;20025;-81
2021/06/27 09:51:41;;;;;;;4.90;3.60;;;;;;;27.91;28.58;101117.94;3569956;40;20104;-79
2021/06/27 09:54:13;;;;;;;5.05;3.70;;;;;;;27.97;28.24;101111.31;3569623;40;20040;-81
2021/06/27 09:56:43;;;;;;;4.72;3.75;;;;;;;28.00;28.23;101113.66;3548129;40;20042;-79
2021/06/27 09:59:13;;;;;;;4.82;3.60;;;;;;;28.05;28.57;101111.00;3546212;40;20412;-78
2021/06/27 10:01:44;;;;;;;4.30;3.38;;;;;;;28.12;28.02;101111.75;3537969;40;20031;-79
2021/06/27 10:04:14;;;;;;;4.70;3.60;;;;;;;28.12;28.14;101106.13;3535569;40;20407;-83
2021/06/27 10:06:49;;;;;;;4.78;3.88;;;;;;;28.20;27.87;101106.84;3530051;40;20409;-81
2021/06/27 10:09:20;;;;;;;4.07;3.22;;;;;;;28.20;28.18;101102.09;3524141;40;20174;-80
2021/06/27 10:12:04;;;;;;;5.13;3.95;;;;;;;28.26;28.08;101101.09;3550993;40;20381;-81
2021/06/27 10:15:12;;;;;;;4.32;3.45;;;;;;;28.23;27.96;101098.78;3550127;40;20415;-80
2021/06/27 10:18:39;;;;;;;4.38;3.58;;;;;;;28.29;28.12;101094.13;3492495;41;20033;-80
2021/06/27 10:22:08;;;;;;;4.50;3.22;;;;;;;28.36;27.94;101090.09;3512341;41;20125;-80
2021/06/27 10:24:38;;;;;;;4.50;3.97;;;;;;;28.43;27.98;101087.16;3521328;40;20060;-80
2021/06/27 10:27:07;;;;;;;4.47;3.60;;;;;;;28.47;27.87;101085.56;3524437;40;20093;-80
2021/06/27 10:29:38;;;;;;;5.30;3.70;;;;;;;28.53;27.14;101084.63;3536198;40;20031;-79
2021/06/27 10:32:07;;;;;;;6.40;4.23;;;;;;;28.52;27.71;101080.09;3535433;40;20071;-79
2021/06/27 10:34:36;;;;;;;4.70;3.95;;;;;;;28.58;27.20;101076.28;3537174;40;20078;-79
2021/06/27 10:37:15;;;;;;;4.45;3.88;;;;;;;28.64;26.71;101069.69;3545520;40;20038;-80
2021/06/27 10:39:57;;;;;;;5.32;3.95;;;;;;;28.66;26.56;101072.22;3546686;40;20429;-80
2021/06/27 10:42:53;;;;;;;5.30;3.85;;;;;;;28.66;27.25;101064.63;3575556;40;20049;-80
2021/06/27 10:45:24;;;;;;;5.32;3.85;;;;;;;28.69;26.73;101064.16;3566801;40;20080;-79
2021/06/27 10:47:52;;;;;;;4.45;3.63;;;;;;;28.75;27.17;101065.13;3575093;40;20454;-79
2021/06/27 10:50:22;;;;;;;4.70;3.83;;;;;;;28.78;26.58;101062.66;3574927;40;22171;-79
2021/06/27 10:53:01;;;;;;;4.18;3.40;;;;;;;28.83;26.52;101071.22;3559329;40;20083;-80
2021/06/27 10:55:32;;;;;;;4.80;3.78;;;;;;;28.87;27.06;101063.13;3601367;40;20035;-80
2021/06/27 10:58:06;;;;;;;4.63;3.73;;;;;;;28.90;26.64;101060.66;3606770;40;20029;-79
2021/06/27 11:01:06;;;;;;;6.05;3.78;;;;;;;28.92;25.97;101055.66;3597600;40;20487;-79
2021/06/27 11:03:36;;;;;;;4.32;3.47;;;;;;;28.96;26.57;101049.53;3588102;40;20056;-78
2021/06/27 11:06:06;;;;;;;4.57;3.80;;;;;;;28.98;26.40;101052.97;3597602;40;20032;-78
2021/06/27 11:08:42;;;;;;;4.40;3.67;;;;;;;29.03;26.07;101045.50;3585131;40;20041;-78
2021/06/27 11:11:14;;;;;;;4.50;3.60;;;;;;;29.01;26.06;101042.03;3584607;40;20130;-78
2021/06/27 11:13:44;;;;;;;4.00;3.20;;;;;;;29.01;26.28;101046.81;3588178;40;20049;-81
2021/06/27 11:16:15;;;;;;;4.50;3.33;;;;;;;29.07;26.03;101048.69;3588518;40;20069;-77
2021/06/27 11:18:45;;;;;;;4.10;3.30;;;;;;;29.05;25.89;101048.91;3585724;40;20350;-79
2021/06/27 11:21:25;;;;;;;4.32;3.33;;;;;;;29.12;25.87;101048.75;3576203;40;20053;-78
2021/06/27 11:23:58;;;;;;;3.80;3.15;;;;;;;29.13;25.33;101050.47;3589638;40;20028;-78
2021/06/27 11:26:56;;;;;;;4.15;3.22;;;;;;;29.12;25.91;101043.13;3606115;40;20047;-79
2021/06/27 11:29:57;;;;;;;4.72;3.05;;;;;;;29.05;25.88;101037.66;3607040;40;20437;-78
2021/06/27 11:32:47;;;;;;;4.47;3.20;;;;;;;29.12;25.66;101041.16;3554572;40;20042;-78
2021/06/27 11:35:36;;;;;;;4.50;3.33;;;;;;;29.16;25.32;101041.50;3554437;40;20305;-78
2021/06/27 11:38:06;;;;;;;4.97;3.35;;;;;;;29.16;25.42;101038.69;3554061;40;20041;-83
2021/06/27 11:40:51;;;;;;;5.03;3.40;;;;;;;29.17;25.20;101035.63;3553959;40;20085;-79
2021/06/27 11:43:53;;;;;;;3.95;3.20;;;;;;;29.14;24.92;101024.03;3556583;40;20054;-79
2021/06/27 11:46:29;;;;;;;4.13;3.05;;;;;;;29.15;25.32;101031.38;3556267;40;20042;-79
2021/06/27 11:48:59;;;;;;;3.80;2.97;;;;;;;29.14;25.23;101032.47;3564555;40;20026;-79